Time;durP1;ratioP1;P1;durP2;ratioP2;P2;SDS_P1;SDS_P2;PMS_P1;PMS_P2;Temp;Humidity;BMP_temperature;BMP_pressure;BME280_temperature;BME280_humidity;BME280_pressure;Samples;Min_cycle;Max_cycle;Signal;HPM_P1;HPM_P2
2023/12/22 00:01:15;;;;;;;;;;;;;;;16.32;47.37;99327.06;5067790;28;1196;-58
2023/12/22 00:03:41;;;;;;;;;;;;;;;17.51;44.44;99327.03;5077383;28;1118;-59
2023/12/22 00:06:07;;;;;;;;;;;;;;;16.51;46.67;99328.84;5077068;28;1080;-59
2023/12/22 00:08:32;;;;;;;;;;;;;;;15.89;48.32;99322.72;5076766;28;1975;-58
2023/12/22 00:10:58;;;;;;;;;;;;;;;15.58;48.89;99333.41;5076605;28;1135;-58
2023/12/22 00:13:23;;;;;;;;;;;;;;;16.60;46.71;99330.53;5073774;28;851;-59
2023/12/22 00:15:49;;;;;;;;;;;;;;;17.25;44.94;99324.94;5076655;28;1047;-58
2023/12/22 00:18:14;;;;;;;;;;;;;;;16.24;47.40;99325.03;5076993;28;1111;-58
2023/12/22 00:20:40;;;;;;;;;;;;;;;15.83;48.46;99326.66;5076340;28;1103;-58
2023/12/22 00:23:05;;;;;;;;;;;;;;;15.62;49.02;99307.03;5076766;28;1027;-60
2023/12/22 00:25:31;;;;;;;;;;;;;;;17.18;45.30;99299.84;5076455;28;1087;-60
2023/12/22 00:27:56;;;;;;;;;;;;;;;16.89;45.68;99295.63;5076612;28;1917;-60
2023/12/22 00:30:24;;;;;;;;;;;;;;;16.16;47.37;99292.84;5076728;28;1072;-59
2023/12/22 00:32:49;;;;;;;;;;;;;;;15.77;48.48;99299.63;5076224;28;1151;-59
2023/12/22 00:35:15;;;;;;;;;;;;;;;16.37;47.25;99293.25;5076536;28;1055;-59
2023/12/22 00:37:40;;;;;;;;;;;;;;;17.48;44.43;99292.75;5072841;28;949;-59
2023/12/22 00:40:07;;;;;;;;;;;;;;;16.41;46.88;99281.31;5062645;28;1094;-59
2023/12/22 00:42:33;;;;;;;;;;;;;;;15.89;48.06;99281.63;5076360;28;1107;-58
2023/12/22 00:44:59;;;;;;;;;;;;;;;15.69;48.67;99281.97;5076318;28;1053;-59
2023/12/22 00:47:24;;;;;;;;;;;;;;;17.31;45.04;99274.25;5076119;28;1012;-59
2023/12/22 00:49:50;;;;;;;;;;;;;;;16.66;45.99;99276.38;5063818;28;1909;-59
2023/12/22 00:52:15;;;;;;;;;;;;;;;16.02;47.71;99271.75;5076339;28;1023;-58
2023/12/22 00:54:41;;;;;;;;;;;;;;;15.68;48.66;99277.59;5075685;28;1116;-59
2023/12/22 00:57:06;;;;;;;;;;;;;;;17.14;45.39;99276.88;5076222;28;1020;-59
2023/12/22 00:59:32;;;;;;;;;;;;;;;16.95;45.35;99264.16;5076244;28;1047;-58
2023/12/22 01:01:57;;;;;;;;;;;;;;;16.14;47.38;99267.66;5070067;28;902;-58
2023/12/22 01:04:23;;;;;;;;;;;;;;;15.80;48.21;99271.66;5076300;28;1111;-58
2023/12/22 01:06:48;;;;;;;;;;;;;;;16.65;46.65;99263.78;5076239;28;1200;-58
2023/12/22 01:09:14;;;;;;;;;;;;;;;17.21;44.88;99263.53;5075650;28;1966;-58
2023/12/22 01:11:40;;;;;;;;;;;;;;;16.21;47.05;99248.84;5076083;28;1175;-58
2023/12/22 01:14:06;;;;;;;;;;;;;;;15.87;47.90;99248.19;5062962;28;1128;-57
2023/12/22 01:16:32;;;;;;;;;;;;;;;16.09;47.66;99246.66;5075610;28;1130;-58
2023/12/22 01:18:58;;;;;;;;;;;;;;;17.50;44.14;99231.97;5076176;28;1155;-58
2023/12/22 01:21:23;;;;;;;;;;;;;;;16.55;46.24;99231.06;5066376;28;1133;-58
2023/12/22 01:23:49;;;;;;;;;;;;;;;15.92;47.77;99217.13;5073653;28;1127;-58
2023/12/22 01:26:14;;;;;;;;;;;;;;;15.66;48.44;99212.16;5069593;28;883;-58
2023/12/22 01:28:40;;;;;;;;;;;;;;;16.33;47.32;99218.97;5075659;28;1901;-59
2023/12/22 01:31:05;;;;;;;;;;;;;;;17.57;44.05;99202.91;5076142;28;1098;-59
2023/12/22 01:33:31;;;;;;;;;;;;;;;16.54;46.31;99193.78;5075664;28;1151;-59
2023/12/22 01:35:56;;;;;;;;;;;;;;;15.99;47.58;99192.88;5076271;28;1118;-59
2023/12/22 01:38:22;;;;;;;;;;;;;;;15.77;48.14;99193.56;5074398;28;1132;-59
2023/12/22 01:40:47;;;;;;;;;;;;;;;16.62;46.27;99187.56;5075880;28;1104;-59
2023/12/22 01:43:21;;;;;;;;;;;;;;;17.27;44.48;99190.84;5075275;28;1329;-59
2023/12/22 01:45:55;;;;;;;;;;;;;;;16.22;47.06;99190.16;5075729;28;1102;-59
2023/12/22 01:48:23;;;;;;;;;;;;;;;15.86;48.01;99189.00;5075244;28;1893;-59
2023/12/22 01:50:50;;;;;;;;;;;;;;;15.56;48.83;99182.22;5050182;28;1005;-59
2023/12/22 01:53:16;;;;;;;;;;;;;;;17.04;45.36;99177.16;5057428;28;1068;-59
2023/12/22 01:55:41;;;;;;;;;;;;;;;16.80;45.69;99166.50;5057993;28;1132;-59
2023/12/22 01:58:07;;;;;;;;;;;;;;;15.95;47.46;99167.19;5075654;28;1008;-59
2023/12/22 02:00:32;;;;;;;;;;;;;;;15.74;48.43;99161.31;5074437;28;1015;-59
2023/12/22 02:02:58;;;;;;;;;;;;;;;17.23;44.99;99162.38;5074125;28;1016;-58
2023/12/22 02:05:23;;;;;;;;;;;;;;;16.76;45.73;99166.34;5075623;28;1063;-59
2023/12/22 02:07:49;;;;;;;;;;;;;;;16.05;47.39;99163.41;5074823;28;1897;-59
2023/12/22 02:10:14;;;;;;;;;;;;;;;15.69;48.08;99167.69;5075205;28;1110;-59
2023/12/22 02:12:40;;;;;;;;;;;;;;;16.62;46.39;99164.78;5074288;28;1019;-59
2023/12/22 02:15:06;;;;;;;;;;;;;;;17.27;44.31;99146.88;5066806;28;1071;-59
2023/12/22 02:17:39;;;;;;;;;;;;;;;16.30;46.40;99142.78;5075473;28;1221;-59
2023/12/22 02:20:05;;;;;;;;;;;;;;;15.91;47.76;99133.28;5057266;28;1445;-59
2023/12/22 02:22:30;;;;;;;;;;;;;;;16.73;46.00;99130.44;5057007;28;1120;-59
2023/12/22 02:24:56;;;;;;;;;;;;;;;17.34;44.27;99124.47;5073099;28;1133;-59
2023/12/22 02:27:33;;;;;;;;;;;;;;;16.33;46.49;99122.16;5075387;28;1067;-59
2023/12/22 02:30:27;;;;;;;;;;;;;;;15.77;48.00;99116.84;5078821;28;1210;-59
2023/12/22 02:32:54;;;;;;;;;;;;;;;16.08;47.24;99107.94;5012866;28;1214;-59
2023/12/22 02:35:21;;;;;;;;;;;;;;;17.35;44.09;99107.66;5059714;28;1048;-59
2023/12/22 02:37:46;;;;;;;;;;;;;;;16.33;46.59;99087.31;5052222;28;1052;-59
2023/12/22 02:40:12;;;;;;;;;;;;;;;15.82;47.67;99100.31;5076410;28;1135;-59
2023/12/22 02:42:38;;;;;;;;;;;;;;;15.84;47.82;99094.53;5079036;28;1063;-59
2023/12/22 02:45:04;;;;;;;;;;;;;;;17.37;44.45;99085.34;5078187;28;1039;-58
2023/12/22 02:47:29;;;;;;;;;;;;;;;16.54;45.86;99081.28;5068190;28;1031;-58
2023/12/22 02:49:55;;;;;;;;;;;;;;;15.89;47.40;99083.41;5070725;28;1913;-56
2023/12/22 02:52:20;;;;;;;;;;;;;;;15.64;48.23;99082.88;5078310;28;1124;-56
2023/12/22 02:54:47;;;;;;;;;;;;;;;17.17;44.58;99084.81;5066886;28;1163;-56
2023/12/22 02:57:12;;;;;;;;;;;;;;;16.85;45.27;99085.97;5078518;28;1052;-57
2023/12/22 02:59:38;;;;;;;;;;;;;;;16.19;46.94;99083.81;5078299;28;1128;-56
2023/12/22 03:02:03;;;;;;;;;;;;;;;15.73;47.79;99074.72;5076907;28;857;-56
2023/12/22 03:04:29;;;;;;;;;;;;;;;16.49;46.36;99073.19;5078313;28;1195;-56
2023/12/22 03:06:54;;;;;;;;;;;;;;;17.43;44.00;99068.41;5077917;28;1040;-56
2023/12/22 03:09:21;;;;;;;;;;;;;;;16.38;46.24;99059.75;5078066;28;1918;-56
2023/12/22 03:11:47;;;;;;;;;;;;;;;15.89;47.50;99053.28;5078120;28;1151;-57
2023/12/22 03:14:12;;;;;;;;;;;;;;;16.03;47.46;99048.56;5069608;28;1031;-56
2023/12/22 03:16:38;;;;;;;;;;;;;;;17.30;44.46;99047.34;5078017;28;1241;-56
2023/12/22 03:19:03;;;;;;;;;;;;;;;16.25;46.74;99044.16;5059955;28;1164;-56
2023/12/22 03:21:29;;;;;;;;;;;;;;;15.89;47.44;99047.78;5077956;28;1123;-56
2023/12/22 03:23:54;;;;;;;;;;;;;;;16.05;47.31;99031.78;5077295;28;1036;-56
2023/12/22 03:26:20;;;;;;;;;;;;;;;17.48;44.05;99041.91;5076194;28;908;-57
2023/12/22 03:28:45;;;;;;;;;;;;;;;16.62;45.75;99039.38;5077958;28;1917;-57
2023/12/22 03:31:11;;;;;;;;;;;;;;;15.97;47.17;99030.59;5077586;28;1119;-57
2023/12/22 03:33:36;;;;;;;;;;;;;;;15.73;47.97;99028.16;5077602;28;1154;-56
2023/12/22 03:36:02;;;;;;;;;;;;;;;16.16;47.19;99024.94;5077598;28;1060;-56
2023/12/22 03:38:28;;;;;;;;;;;;;;;17.45;43.91;99033.16;5069603;28;1163;-56
2023/12/22 03:40:53;;;;;;;;;;;;;;;16.42;46.14;99030.56;5077327;28;1037;-56
2023/12/22 03:43:19;;;;;;;;;;;;;;;15.89;47.67;99023.13;5064546;28;1075;-56
2023/12/22 03:45:44;;;;;;;;;;;;;;;15.58;48.18;99010.13;5077448;28;1107;-56
2023/12/22 03:48:10;;;;;;;;;;;;;;;16.73;45.69;99017.94;5077369;28;1974;-56
2023/12/22 03:50:35;;;;;;;;;;;;;;;17.43;43.91;99012.63;5076206;28;852;-56
2023/12/22 03:53:01;;;;;;;;;;;;;;;16.37;46.27;99013.44;5077002;28;1023;-56
2023/12/22 03:55:26;;;;;;;;;;;;;;;15.83;47.63;98999.72;5076690;28;1138;-56
2023/12/22 03:57:52;;;;;;;;;;;;;;;15.64;47.92;99000.69;5077123;28;1079;-56
2023/12/22 04:00:17;;;;;;;;;;;;;;;17.12;44.92;99008.06;5077077;28;1226;-56
2023/12/22 04:02:43;;;;;;;;;;;;;;;16.48;45.91;99009.28;5069324;28;1179;-56
2023/12/22 04:05:11;;;;;;;;;;;;;;;15.97;47.33;99010.63;5077296;28;1104;-56
2023/12/22 04:07:36;;;;;;;;;;;;;;;16.06;47.34;99005.97;5076521;28;1972;-56
2023/12/22 04:10:02;;;;;;;;;;;;;;;17.45;44.03;99007.63;5076889;28;1305;-56
2023/12/22 04:12:27;;;;;;;;;;;;;;;16.50;46.02;99014.47;5059153;28;1131;-56
2023/12/22 04:14:53;;;;;;;;;;;;;;;15.93;47.28;98996.72;5075651;28;1008;-56
2023/12/22 04:17:19;;;;;;;;;;;;;;;16.18;47.21;99005.41;5076434;28;1161;-55
2023/12/22 04:19:44;;;;;;;;;;;;;;;17.36;44.27;99001.31;5076843;28;1082;-57
2023/12/22 04:22:10;;;;;;;;;;;;;;;16.29;46.69;98998.53;5076071;28;1070;-57
2023/12/22 04:24:35;;;;;;;;;;;;;;;15.85;47.85;98994.72;5076457;28;1129;-56
2023/12/22 04:27:01;;;;;;;;;;;;;;;15.58;48.11;98985.47;5067804;28;1082;-56
2023/12/22 04:29:26;;;;;;;;;;;;;;;16.95;45.28;98992.34;5076827;28;1914;-56
2023/12/22 04:31:52;;;;;;;;;;;;;;;17.00;44.97;98999.63;5064969;28;1202;-58
2023/12/22 04:34:17;;;;;;;;;;;;;;;16.19;46.60;98987.84;5076083;28;1059;-58
2023/12/22 04:36:43;;;;;;;;;;;;;;;15.78;47.87;98986.09;5076335;28;1106;-57
2023/12/22 04:39:08;;;;;;;;;;;;;;;16.15;47.20;98982.16;5073331;28;1057;-55
2023/12/22 04:41:34;;;;;;;;;;;;;;;17.29;44.13;98985.28;5076604;28;1179;-55
2023/12/22 04:44:03;;;;;;;;;;;;;;;16.32;46.21;98989.66;5076542;28;1019;-56
2023/12/22 04:46:29;;;;;;;;;;;;;;;15.83;47.70;98972.31;5076051;28;1079;-56
2023/12/22 04:48:54;;;;;;;;;;;;;;;16.60;45.94;98973.00;5076181;28;1906;-57
2023/12/22 04:51:20;;;;;;;;;;;;;;;16.98;44.64;98958.75;5062341;28;1087;-56
2023/12/22 04:53:45;;;;;;;;;;;;;;;16.08;46.81;98960.69;5076297;28;1046;-59
2023/12/22 04:56:11;;;;;;;;;;;;;;;15.70;47.78;98950.09;5075599;28;1195;-58
2023/12/22 04:58:36;;;;;;;;;;;;;;;16.28;46.69;98955.78;5076076;28;1066;-59
2023/12/22 05:01:02;;;;;;;;;;;;;;;17.39;43.92;98957.50;5075916;28;1143;-60
2023/12/22 05:03:27;;;;;;;;;;;;;;;16.35;46.23;98956.13;5071764;28;920;-60
2023/12/22 05:05:53;;;;;;;;;;;;;;;15.88;47.55;98963.97;5060990;28;1226;-58
2023/12/22 05:08:18;;;;;;;;;;;;;;;15.68;48.22;98952.34;5064362;28;1976;-59
2023/12/22 05:10:45;;;;;;;;;;;;;;;17.26;44.26;98963.97;5075770;28;1314;-59
2023/12/22 05:13:10;;;;;;;;;;;;;;;16.62;45.53;98950.72;5075499;28;1214;-60
2023/12/22 05:15:36;;;;;;;;;;;;;;;16.01;46.97;98960.31;5075764;28;1317;-59
2023/12/22 05:18:01;;;;;;;;;;;;;;;15.65;48.03;98952.97;5075690;28;1324;-59
2023/12/22 05:20:27;;;;;;;;;;;;;;;16.12;46.90;98960.03;5075775;28;1317;-59
2023/12/22 05:22:52;;;;;;;;;;;;;;;17.48;43.91;98973.19;5067125;28;1207;-60
2023/12/22 05:25:18;;;;;;;;;;;;;;;16.55;45.92;98962.16;5068573;28;1308;-59
2023/12/22 05:27:43;;;;;;;;;;;;;;;17.73;42.79;98960.56;5066189;28;1901;-60
2023/12/22 05:30:09;;;;;;;;;;;;;;;16.42;45.89;98964.72;5062801;28;1345;-60
2023/12/22 05:32:35;;;;;;;;;;;;;;;16.36;46.35;98965.97;5063220;28;1332;-61
2023/12/22 05:35:00;;;;;;;;;;;;;;;17.26;43.92;98961.22;5065861;28;1404;-60
2023/12/22 05:37:26;;;;;;;;;;;;;;;16.91;45.36;98963.91;5059017;28;1309;-60
2023/12/22 05:39:51;;;;;;;;;;;;;;;18.33;41.81;98967.06;5057365;28;1352;-61
2023/12/22 05:42:17;;;;;;;;;;;;;;;17.22;44.38;98954.75;5063654;28;1132;-61
2023/12/22 05:44:43;;;;;;;;;;;;;;;16.48;45.56;98956.34;5075961;28;1032;-62
2023/12/22 05:47:08;;;;;;;;;;;;;;;17.17;44.65;98966.72;5076183;28;1050;-64
2023/12/22 05:49:34;;;;;;;;;;;;;;;17.28;44.27;98967.22;5075249;28;1910;-60
2023/12/22 05:51:59;;;;;;;;;;;;;;;16.52;45.69;98963.63;5069294;28;1356;-59
2023/12/22 05:54:25;;;;;;;;;;;;;;;17.74;43.37;98968.47;5068387;28;1320;-58
2023/12/22 05:56:51;;;;;;;;;;;;;;;17.14;44.58;98966.53;5065779;28;1308;-61
2023/12/22 05:59:17;;;;;;;;;;;;;;;17.27;44.55;98969.13;5075670;28;1258;-58
2023/12/22 06:01:43;;;;;;;;;;;;;;;18.42;41.87;98976.09;5074223;28;1270;-61
2023/12/22 06:04:08;;;;;;;;;;;;;;;17.36;44.04;98969.16;5072538;28;1504;-60
2023/12/22 06:06:34;;;;;;;;;;;;;;;18.92;40.52;98963.56;5063613;28;1267;-60
2023/12/22 06:08:59;;;;;;;;;;;;;;;18.20;42.15;98959.84;5069452;28;1905;-62
2023/12/22 06:11:24;;;;;;;;;;;;;;;17.40;43.83;98961.88;5063891;28;993;-62
2023/12/22 06:13:50;;;;;;;;;;;;;;;17.05;44.26;98955.53;5074191;28;1119;-62
2023/12/22 06:16:16;;;;;;;;;;;;;;;18.47;41.94;98964.91;5072293;28;1053;-61
2023/12/22 06:18:42;;;;;;;;;;;;;;;17.46;43.84;98973.53;5078859;28;1270;-62
2023/12/22 06:21:08;;;;;;;;;;;;;;;17.54;44.02;98955.41;5070798;28;1293;-64
2023/12/22 06:23:34;;;;;;;;;;;;;;;18.13;42.41;98955.66;5068964;28;1293;-64
2023/12/22 06:26:02;;;;;;;;;;;;;;;17.20;44.23;98959.78;5067981;28;1226;-60
2023/12/22 06:28:27;;;;;;;;;;;;;;;18.18;42.67;98953.88;5066894;28;1973;-61
2023/12/22 06:30:54;;;;;;;;;;;;;;;17.52;43.87;98947.47;5067578;28;1095;-61
2023/12/22 06:33:19;;;;;;;;;;;;;;;16.99;44.48;98946.66;5077369;28;1170;-61
2023/12/22 06:35:45;;;;;;;;;;;;;;;17.03;44.58;98947.63;5062339;28;1293;-60
2023/12/22 06:38:11;;;;;;;;;;;;;;;17.58;43.79;98931.63;5067754;28;1095;-61
2023/12/22 06:40:36;;;;;;;;;;;;;;;16.98;44.84;98934.03;5071524;28;1396;-62
2023/12/22 06:43:02;;;;;;;;;;;;;;;18.42;42.15;98931.25;5078122;28;1194;-62
2023/12/22 06:45:27;;;;;;;;;;;;;;;17.38;44.12;98925.66;5078411;28;1241;-61
2023/12/22 06:47:53;;;;;;;;;;;;;;;16.87;44.68;98924.47;5078601;28;1898;-61
2023/12/22 06:50:19;;;;;;;;;;;;;;;17.99;42.97;98923.97;5078826;28;1074;-64
2023/12/22 06:52:44;;;;;;;;;;;;;;;17.08;44.59;98930.19;5055510;28;843;-63
2023/12/22 06:55:10;;;;;;;;;;;;;;;18.38;42.31;98928.34;5065507;28;1530;-60
2023/12/22 06:57:35;;;;;;;;;;;;;;;17.71;43.70;98924.34;5067488;28;1095;-62
2023/12/22 07:00:01;;;;;;;;;;;;;;;17.14;44.39;98928.09;5076776;28;1115;-61
2023/12/22 07:02:27;;;;;;;;;;;;;;;18.47;42.20;98923.63;5078275;28;1206;-59
2023/12/22 07:05:08;;;;;;;;;;;;;;;17.50;44.05;98921.47;5078125;28;1134;-62
2023/12/22 07:07:34;;;;;;;;;;;;;;;17.00;44.42;98931.81;5078392;28;1141;-62
2023/12/22 07:10:00;;;;;;;;;;;;;;;18.21;42.60;98923.72;5058987;28;1930;-62
2023/12/22 07:12:25;;;;;;;;;;;;;;;17.19;44.44;98919.69;5071276;28;1151;-60
2023/12/22 07:14:51;;;;;;;;;;;;;;;18.04;43.10;98921.84;5077618;28;1151;-61
2023/12/22 07:17:16;;;;;;;;;;;;;;;17.79;43.59;98915.25;5071531;28;1032;-62
2023/12/22 07:19:42;;;;;;;;;;;;;;;17.11;44.37;98910.34;5064619;28;1103;-63
2023/12/22 07:22:08;;;;;;;;;;;;;;;17.62;44.17;98910.63;5078326;28;1094;-62
2023/12/22 07:24:33;;;;;;;;;;;;;;;17.47;44.19;98905.63;5058508;28;1237;-62
2023/12/22 07:26:59;;;;;;;;;;;;;;;18.53;41.99;98904.19;5071042;28;1059;-59
2023/12/22 07:29:24;;;;;;;;;;;;;;;19.08;40.66;98899.63;5077637;28;1930;-61
2023/12/22 07:31:50;;;;;;;;;;;;;;;14.91;50.99;98902.09;5078010;28;1044;-64
2023/12/22 07:34:16;;;;;;;;;;;;;;;18.36;42.56;98894.06;5077099;28;1081;-62
2023/12/22 07:36:42;;;;;;;;;;;;;;;17.88;43.39;98901.50;5075933;28;1123;-58
2023/12/22 07:39:09;;;;;;;;;;;;;;;17.21;44.34;98896.28;5066053;28;1111;-58
2023/12/22 07:41:34;;;;;;;;;;;;;;;18.30;42.72;98886.00;5073279;28;1226;-60
2023/12/22 07:44:01;;;;;;;;;;;;;;;17.49;44.11;98889.59;5077132;28;1269;-63
2023/12/22 07:46:28;;;;;;;;;;;;;;;17.03;44.54;98887.22;5060187;28;1230;-64
2023/12/22 07:48:54;;;;;;;;;;;;;;;18.06;43.31;98881.09;5057784;28;1902;-62
2023/12/22 07:51:20;;;;;;;;;;;;;;;17.29;44.26;98891.88;5075216;28;1111;-63
2023/12/22 07:53:46;;;;;;;;;;;;;;;18.49;42.19;98884.75;5077566;28;1083;-63
2023/12/22 07:56:11;;;;;;;;;;;;;;;18.47;42.18;98890.59;5073044;28;1067;-64
2023/12/22 07:58:37;;;;;;;;;;;;;;;17.53;44.16;98894.16;5068445;28;1390;-60
2023/12/22 08:01:03;;;;;;;;;;;;;;;17.13;44.38;98894.31;5064409;28;1154;-62
2023/12/22 08:03:29;;;;;;;;;;;;;;;18.24;42.76;98895.59;5075376;28;1099;-64
2023/12/22 08:05:55;;;;;;;;;;;;;;;17.54;44.19;98911.44;5070680;28;1114;-61
2023/12/22 08:08:21;;;;;;;;;;;;;;;17.08;44.56;98911.78;5057137;28;1902;-60
2023/12/22 08:10:46;;;;;;;;;;;;;;;17.83;43.67;98926.44;5072417;28;1259;-61
2023/12/22 08:13:12;;;;;;;;;;;;;;;17.16;44.67;98932.13;5067833;28;1172;-64
2023/12/22 08:15:37;;;;;;;;;;;;;;;17.58;44.15;98928.88;5062281;28;1072;-62
2023/12/22 08:18:03;;;;;;;;;;;;;;;17.54;44.24;98936.97;5068002;28;1105;-59
2023/12/22 08:20:28;;;;;;;;;;;;;;;17.08;44.64;98931.00;5063903;28;1147;-61
2023/12/22 08:22:54;;;;;;;;;;;;;;;18.64;41.95;98921.94;5076904;28;1055;-61
2023/12/22 08:25:20;;;;;;;;;;;;;;;17.41;44.01;98927.75;5063046;28;1166;-63
2023/12/22 08:27:45;;;;;;;;;;;;;;;17.09;44.76;98920.81;5065783;28;1914;-60
2023/12/22 08:30:11;;;;;;;;;;;;;;;17.78;43.36;98919.97;5039510;28;1186;-61
2023/12/22 08:32:36;;;;;;;;;;;;;;;17.15;44.45;98925.00;5067526;28;1122;-57
2023/12/22 08:35:04;;;;;;;;;;;;;;;17.08;44.69;98922.78;5076592;28;1035;-58
2023/12/22 08:37:29;;;;;;;;;;;;;;;17.95;43.08;98912.84;5076742;28;1486;-60
2023/12/22 08:39:55;;;;;;;;;;;;;;;17.07;44.66;98907.41;5062866;28;1080;-61
2023/12/22 08:42:22;;;;;;;;;;;;;;;17.95;43.37;98908.13;5076701;28;1066;-60
2023/12/22 08:44:47;;;;;;;;;;;;;;;17.72;43.74;98898.47;5049159;28;1043;-63
2023/12/22 08:47:13;;;;;;;;;;;;;;;17.12;44.56;98897.41;5076516;28;1207;-62
2023/12/22 08:49:38;;;;;;;;;;;;;;;18.36;42.28;98897.63;5076519;28;1902;-62
2023/12/22 08:52:04;;;;;;;;;;;;;;;17.32;44.54;98891.25;5058113;28;1150;-61
2023/12/22 08:54:30;;;;;;;;;;;;;;;17.30;44.70;98885.28;5066297;28;1011;-61
2023/12/22 08:56:55;;;;;;;;;;;;;;;17.79;43.44;98890.53;5073435;28;1494;-60
2023/12/22 08:59:21;;;;;;;;;;;;;;;17.12;44.46;98886.41;5066086;28;1143;-59
2023/12/22 09:01:46;;;;;;;;;;;;;;;18.45;42.35;98870.06;5073873;28;987;-60
2023/12/22 09:04:12;;;;;;;;;;;;;;;17.50;44.05;98866.50;5070139;28;1225;-61
2023/12/22 09:06:37;;;;;;;;;;;;;;;17.50;44.48;98861.00;5071780;28;1560;-62
2023/12/22 09:09:06;;;;;;;;;;;;;;;18.21;42.62;98854.16;5074238;28;1914;-60
2023/12/22 09:11:31;;;;;;;;;;;;;;;17.20;44.52;98849.91;5070385;28;1290;-60
2023/12/22 09:13:57;;;;;;;;;;;;;;;17.00;44.20;98846.69;5073024;28;1285;-60
2023/12/22 09:16:23;;;;;;;;;;;;;;;18.33;42.57;98832.25;5071925;28;1214;-59
2023/12/22 09:18:49;;;;;;;;;;;;;;;17.45;44.08;98829.03;5060710;28;1255;-59
2023/12/22 09:21:15;;;;;;;;;;;;;;;17.00;44.58;98824.72;5064691;28;1002;-64
2023/12/22 09:23:44;;;;;;;;;;;;;;;17.58;44.16;98833.50;5072737;28;1291;-58
2023/12/22 09:26:09;;;;;;;;;;;;;;;17.56;43.96;98832.22;5070567;28;1242;-61
2023/12/22 09:28:35;;;;;;;;;;;;;;;17.14;44.34;98834.72;5068300;28;1905;-62
2023/12/22 09:31:02;;;;;;;;;;;;;;;16.82;44.57;98834.06;5069381;28;1336;-62
2023/12/22 09:33:27;;;;;;;;;;;;;;;17.70;43.87;98830.09;5066683;28;1332;-62
2023/12/22 09:35:53;;;;;;;;;;;;;;;17.55;44.15;98823.16;5066512;28;1239;-58
2023/12/22 09:38:18;;;;;;;;;;;;;;;17.25;45.12;98816.75;5076353;28;1253;-61
2023/12/22 09:40:44;;;;;;;;;;;;;;;18.72;41.53;98812.88;5078862;28;1210;-60
2023/12/22 09:43:09;;;;;;;;;;;;;;;17.49;44.02;98815.41;5061610;28;1215;-58
2023/12/22 09:45:35;;;;;;;;;;;;;;;17.03;44.98;98812.28;5080376;28;1182;-60
2023/12/22 09:48:00;;;;;;;;;;;;;;;18.01;43.05;98808.97;5065913;28;1913;-61
2023/12/22 09:50:26;;;;;;;;;;;;;;;17.17;44.48;98801.13;5079469;28;1208;-60
2023/12/22 09:52:52;;;;;;;;;;;;;;;16.88;44.58;98797.06;5076254;28;1246;-58
2023/12/22 09:55:17;;;;;;;;;;;;;;;17.74;44.18;98797.22;5067960;28;1075;-60
2023/12/22 09:57:43;;;;;;;;;;;;;;;17.41;44.53;98789.59;5047531;28;1123;-63
2023/12/22 10:00:09;;;;;;;;;;;;;;;16.86;44.72;98791.91;5079995;28;1187;-61
2023/12/22 10:02:35;;;;;;;;;;;;;;;18.01;43.34;98790.50;5079022;28;1092;-61
2023/12/22 10:05:00;;;;;;;;;;;;;;;17.09;44.79;98784.31;5054914;28;1059;-63
2023/12/22 10:07:26;;;;;;;;;;;;;;;18.37;42.43;98778.16;5073208;28;1163;-62
2023/12/22 10:09:51;;;;;;;;;;;;;;;17.86;43.35;98766.31;5041881;28;1909;-62
2023/12/22 10:12:17;;;;;;;;;;;;;;;17.20;44.64;98767.50;5079812;28;1177;-57
2023/12/22 10:14:42;;;;;;;;;;;;;;;18.12;43.10;98757.94;5079429;28;1054;-60
2023/12/22 10:17:08;;;;;;;;;;;;;;;17.39;44.29;98756.13;5077900;28;1063;-62
2023/12/22 10:19:33;;;;;;;;;;;;;;;17.78;43.89;98752.28;5061755;28;1160;-63
2023/12/22 10:21:59;;;;;;;;;;;;;;;18.28;42.64;98745.19;5079264;28;1147;-58
2023/12/22 10:24:37;;;;;;;;;;;;;;;17.37;44.34;98739.19;5079264;28;1230;-65
2023/12/22 10:27:03;;;;;;;;;;;;;;;17.07;44.86;98741.84;5067688;28;1094;-63
2023/12/22 10:29:29;;;;;;;;;;;;;;;17.97;43.15;98740.06;5073421;28;1902;-61
2023/12/22 10:31:54;;;;;;;;;;;;;;;17.13;44.75;98737.00;5049275;28;1246;-62
2023/12/22 10:34:20;;;;;;;;;;;;;;;18.36;42.69;98729.78;5079573;28;1182;-62
2023/12/22 10:36:46;;;;;;;;;;;;;;;17.73;43.69;98730.47;5076315;28;1048;-62
2023/12/22 10:39:11;;;;;;;;;;;;;;;17.81;43.85;98728.81;5061127;28;1212;-62
2023/12/22 10:41:37;;;;;;;;;;;;;;;18.70;41.59;98719.59;5078386;28;877;-62
2023/12/22 10:44:03;;;;;;;;;;;;;;;17.54;44.08;98716.31;5061332;28;1048;-62
2023/12/22 10:46:30;;;;;;;;;;;;;;;17.16;44.31;98706.13;5077413;28;1094;-62
2023/12/22 10:48:56;;;;;;;;;;;;;;;18.24;42.79;98705.75;5048301;28;1975;-61
2023/12/22 10:51:21;;;;;;;;;;;;;;;17.39;44.11;98707.50;5065580;28;1178;-62
2023/12/22 10:53:47;;;;;;;;;;;;;;;17.28;44.46;98703.50;5068243;28;895;-62
2023/12/22 10:56:12;;;;;;;;;;;;;;;17.88;43.39;98709.84;5073017;28;1162;-60
2023/12/22 10:58:39;;;;;;;;;;;;;;;17.15;44.61;98702.56;5075103;28;1210;-60
2023/12/22 11:01:05;;;;;;;;;;;;;;;18.25;42.98;98699.09;5060600;28;1266;-60
2023/12/22 11:03:30;;;;;;;;;;;;;;;17.49;43.96;98702.75;5078309;28;1207;-61
2023/12/22 11:05:56;;;;;;;;;;;;;;;16.99;44.58;98691.31;5075898;28;1262;-61
2023/12/22 11:08:21;;;;;;;;;;;;;;;16.89;44.66;98692.47;5052954;28;1975;-62
2023/12/22 11:10:48;;;;;;;;;;;;;;;18.46;42.25;98698.28;5067234;28;1324;-61
2023/12/22 11:13:13;;;;;;;;;;;;;;;17.33;44.35;98697.81;5071454;28;1323;-62
2023/12/22 11:15:39;;;;;;;;;;;;;;;16.94;44.79;98699.72;5068347;28;1348;-62
2023/12/22 11:18:05;;;;;;;;;;;;;;;18.15;42.88;98693.22;5069664;28;900;-62
2023/12/22 11:20:32;;;;;;;;;;;;;;;17.18;44.70;98693.69;5078612;28;1070;-66
2023/12/22 11:22:58;;;;;;;;;;;;;;;17.60;44.24;98684.78;5060722;28;1110;-63
2023/12/22 11:25:23;;;;;;;;;;;;;;;17.67;43.72;98689.75;5060218;28;1146;-62
2023/12/22 11:27:49;;;;;;;;;;;;;;;17.09;44.82;98690.16;5078181;28;1119;-60
2023/12/22 11:30:14;;;;;;;;;;;;;;;18.27;42.90;98696.84;5077239;28;1984;-66
2023/12/22 11:32:40;;;;;;;;;;;;;;;17.38;44.30;98697.63;5065692;28;1088;-64
2023/12/22 11:35:07;;;;;;;;;;;;;;;17.16;44.75;98695.16;5077581;28;1070;-61
2023/12/22 11:37:33;;;;;;;;;;;;;;;17.99;43.20;98699.28;5078199;28;1139;-60
2023/12/22 11:39:58;;;;;;;;;;;;;;;17.12;44.46;98694.19;5059794;28;1087;-63
2023/12/22 11:42:25;;;;;;;;;;;;;;;18.13;43.15;98705.34;5074422;28;973;-62
2023/12/22 11:44:52;;;;;;;;;;;;;;;17.60;43.98;98687.53;5046534;28;1131;-58
2023/12/22 11:47:17;;;;;;;;;;;;;;;17.03;44.67;98683.25;5069056;28;1147;-60
2023/12/22 11:49:43;;;;;;;;;;;;;;;17.32;44.37;98682.50;5039871;28;1926;-60
2023/12/22 11:52:11;;;;;;;;;;;;;;;17.97;43.00;98671.31;5067204;28;1063;-62
2023/12/22 11:54:53;;;;;;;;;;;;;;;17.07;44.66;98671.25;5063871;28;1190;-61
2023/12/22 11:57:25;;;;;;;;;;;;;;;18.35;42.45;98670.38;5060320;28;1231;-59
2023/12/22 11:59:51;;;;;;;;;;;;;;;17.41;44.06;98663.22;5077507;28;1269;-61
2023/12/22 12:02:16;;;;;;;;;;;;;;;17.07;44.71;98656.75;5065547;28;1238;-59
2023/12/22 12:04:42;;;;;;;;;;;;;;;17.95;43.04;98654.38;5076940;28;1047;-63
2023/12/22 12:07:26;;;;;;;;;;;;;;;17.14;44.76;98659.78;5043069;28;1196;-64
2023/12/22 12:09:52;;;;;;;;;;;;;;;16.83;44.91;98659.97;5066069;28;1901;-64
2023/12/22 12:12:18;;;;;;;;;;;;;;;17.93;43.17;98651.94;5045745;28;1242;-63
2023/12/22 12:14:44;;;;;;;;;;;;;;;17.06;44.56;98658.66;5077101;28;956;-64
2023/12/22 12:17:10;;;;;;;;;;;;;;;18.61;41.96;98647.34;5075445;28;1000;-63
2023/12/22 12:19:37;;;;;;;;;;;;;;;17.84;43.28;98645.66;5057521;28;1374;-63
2023/12/22 12:22:02;;;;;;;;;;;;;;;17.20;44.27;98643.91;5059820;28;921;-64
2023/12/22 12:24:28;;;;;;;;;;;;;;;17.36;44.59;98639.50;5077064;28;1055;-63
2023/12/22 12:26:54;;;;;;;;;;;;;;;17.55;43.83;98639.03;5074985;28;1167;-63
2023/12/22 12:29:20;;;;;;;;;;;;;;;16.98;44.76;98637.53;5065629;28;1906;-62
2023/12/22 12:31:45;;;;;;;;;;;;;;;18.36;42.34;98638.97;5052638;28;1032;-62
2023/12/22 12:34:11;;;;;;;;;;;;;;;17.36;44.25;98633.16;5057465;28;1124;-60
2023/12/22 12:36:37;;;;;;;;;;;;;;;17.00;44.67;98624.28;5074934;28;1242;-60
2023/12/22 12:39:10;;;;;;;;;;;;;;;17.09;45.00;98610.53;5047047;28;1231;-61
2023/12/22 12:41:36;;;;;;;;;;;;;;;17.82;43.66;98606.69;5073710;28;1139;-60
2023/12/22 12:44:05;;;;;;;;;;;;;;;17.06;44.79;98616.69;5076050;28;1266;-60
2023/12/22 12:46:37;;;;;;;;;;;;;;;18.39;42.59;98613.53;5058321;28;1337;-59
2023/12/22 12:49:04;;;;;;;;;;;;;;;17.50;43.88;98605.47;5076376;28;1910;-60
2023/12/22 12:51:29;;;;;;;;;;;;;;;17.08;44.32;98609.72;5076089;28;1218;-58